Time;durP1;ratioP1;P1;durP2;ratioP2;P2;SDS_P1;SDS_P2;PMS_P1;PMS_P2;Temp;Humidity;BMP_temperature;BMP_pressure;BME280_temperature;BME280_humidity;BME280_pressure;Samples;Min_cycle;Max_cycle;Signal;HPM_P1;HPM_P2
2022/03/26 00:00:12;;;;;;;;;;;;;;;22.22;25.26;96541.69;10522564;28;1816;-59
2022/03/26 00:05:13;;;;;;;;;;;;;;;22.25;25.00;96550.94;10503858;28;1819;-56
2022/03/26 00:10:13;;;;;;;;;;;;;;;22.22;25.22;96540.91;10521080;28;2232;-57
2022/03/26 00:15:13;;;;;;;;;;;;;;;22.26;24.93;96545.41;10520374;28;1910;-59
2022/03/26 00:20:14;;;;;;;;;;;;;;;22.24;25.00;96533.50;10522006;28;1891;-59
2022/03/26 00:25:17;;;;;;;;;;;;;;;22.23;25.11;96545.94;10518863;28;1805;-58
2022/03/26 00:30:17;;;;;;;;;;;;;;;22.26;25.01;96548.03;10499571;28;1819;-58
2022/03/26 00:35:18;;;;;;;;;;;;;;;22.27;25.00;96544.34;10505007;28;1981;-58
2022/03/26 00:40:19;;;;;;;;;;;;;;;22.25;24.81;96545.66;10507794;28;1687;-58
2022/03/26 00:45:20;;;;;;;;;;;;;;;22.27;24.90;96540.91;10522270;28;1861;-58
2022/03/26 00:50:20;;;;;;;;;;;;;;;22.27;24.87;96541.72;10515204;28;1820;-58
2022/03/26 00:55:21;;;;;;;;;;;;;;;22.26;24.75;96548.03;10520109;28;1909;-56
2022/03/26 01:00:22;;;;;;;;;;;;;;;22.26;24.66;96558.59;10520120;28;1784;-60
2022/03/26 01:05:22;;;;;;;;;;;;;;;22.25;24.62;96556.22;10523856;28;1823;-58
2022/03/26 01:10:22;;;;;;;;;;;;;;;22.26;24.65;96561.25;10508102;28;1782;-57
2022/03/26 01:15:23;;;;;;;;;;;;;;;22.26;24.53;96557.81;10527366;28;1902;-55
2022/03/26 01:20:23;;;;;;;;;;;;;;;22.24;24.59;96555.44;10528441;28;1678;-60
2022/03/26 01:25:24;;;;;;;;;;;;;;;22.24;24.67;96554.63;10512489;28;1851;-60
2022/03/26 01:30:25;;;;;;;;;;;;;;;22.26;24.61;96552.53;10492975;28;2322;-60
2022/03/26 01:35:25;;;;;;;;;;;;;;;22.25;24.63;96551.75;10509186;28;1941;-57
2022/03/26 01:40:26;;;;;;;;;;;;;;;22.24;24.58;96558.06;10510540;28;1863;-59
2022/03/26 01:45:27;;;;;;;;;;;;;;;22.23;24.46;96553.88;10527340;28;1923;-58
2022/03/26 01:50:28;;;;;;;;;;;;;;;22.26;24.58;96550.69;10502886;28;1961;-58
2022/03/26 01:55:28;;;;;;;;;;;;;;;22.25;24.69;96546.47;10503383;28;1946;-59
2022/03/26 02:00:29;;;;;;;;;;;;;;;22.24;24.67;96546.72;10505713;28;1827;-58
2022/03/26 02:05:29;;;;;;;;;;;;;;;22.22;24.50;96540.91;10528262;28;1976;-57
2022/03/26 02:10:39;;;;;;;;;;;;;;;22.20;24.69;96541.19;10523266;28;2140;-58
2022/03/26 02:15:40;;;;;;;;;;;;;;;22.20;24.56;96543.81;10505414;28;1984;-57
2022/03/26 02:20:40;;;;;;;;;;;;;;;22.25;24.42;96540.38;10523807;28;1896;-59
2022/03/26 02:25:41;;;;;;;;;;;;;;;22.21;24.48;96544.63;10524784;28;1860;-56
2022/03/26 02:30:41;;;;;;;;;;;;;;;22.22;24.67;96546.97;10522274;28;2204;-58
2022/03/26 02:35:42;;;;;;;;;;;;;;;22.20;24.48;96543.81;10523126;28;1916;-59
2022/03/26 02:40:42;;;;;;;;;;;;;;;22.20;24.48;96541.19;10510344;28;1929;-60
2022/03/26 02:45:43;;;;;;;;;;;;;;;22.20;24.70;96540.38;10507475;28;1830;-59
2022/03/26 02:50:44;;;;;;;;;;;;;;;22.21;24.63;96542.78;10500335;28;1887;-59
2022/03/26 02:55:44;;;;;;;;;;;;;;;22.23;24.73;96539.84;10507464;28;1980;-60
2022/03/26 03:00:44;;;;;;;;;;;;;;;22.23;24.66;96553.88;10501893;28;2036;-59
2022/03/26 03:05:46;;;;;;;;;;;;;;;22.24;24.58;96550.16;10505967;28;1991;-59
2022/03/26 03:10:47;;;;;;;;;;;;;;;22.24;24.61;96555.44;10523451;28;1969;-59
2022/03/26 03:15:49;;;;;;;;;;;;;;;22.21;24.58;96558.63;10503502;28;2027;-59
2022/03/26 03:20:49;;;;;;;;;;;;;;;22.22;24.45;96560.19;10502572;28;2306;-58
2022/03/26 03:25:49;;;;;;;;;;;;;;;22.23;24.57;96574.19;10507834;28;1871;-56
2022/03/26 03:30:50;;;;;;;;;;;;;;;22.23;24.52;96569.72;10520197;28;1946;-57
2022/03/26 03:35:51;;;;;;;;;;;;;;;22.25;24.38;96562.31;10519736;28;2005;-57
2022/03/26 03:40:52;;;;;;;;;;;;;;;22.26;24.29;96573.66;10523306;28;2016;-58
2022/03/26 03:45:52;;;;;;;;;;;;;;;22.27;24.46;96562.03;10503958;28;2006;-56
2022/03/26 03:50:52;;;;;;;;;;;;;;;22.26;24.47;96557.81;10520398;28;1878;-56
2022/03/26 03:55:53;;;;;;;;;;;;;;;22.25;24.36;96561.50;10517273;28;1981;-58
2022/03/26 04:00:53;;;;;;;;;;;;;;;22.22;24.37;96556.75;10503228;28;1981;-59
2022/03/26 04:05:55;;;;;;;;;;;;;;;22.23;24.43;96543.28;10520265;28;1895;-59
2022/03/26 04:10:56;;;;;;;;;;;;;;;22.24;24.38;96558.06;10519691;28;1989;-59
2022/03/26 04:16:00;;;;;;;;;;;;;;;22.25;24.28;96559.66;10519300;28;2025;-58
2022/03/26 04:21:00;;;;;;;;;;;;;;;22.24;24.20;96559.91;10504557;28;1950;-59
2022/03/26 04:26:01;;;;;;;;;;;;;;;22.23;24.39;96561.78;10522958;28;1907;-59
2022/03/26 04:31:05;;;;;;;;;;;;;;;22.24;24.27;96566.00;10519876;28;1910;-59
2022/03/26 04:36:06;;;;;;;;;;;;;;;22.27;24.05;96567.31;10503621;28;1999;-60
2022/03/26 04:41:08;;;;;;;;;;;;;;;22.23;24.34;96569.72;10505459;28;1884;-58
2022/03/26 04:46:08;;;;;;;;;;;;;;;22.23;24.14;96569.72;10511300;28;1941;-57
2022/03/26 04:51:11;;;;;;;;;;;;;;;22.21;24.27;96566.53;10519690;28;1922;-58
2022/03/26 04:56:12;;;;;;;;;;;;;;;22.21;24.30;96558.63;10533256;28;1996;-60
2022/03/26 05:01:12;;;;;;;;;;;;;;;22.21;24.32;96561.25;10539289;28;1887;-60
2022/03/26 05:06:12;;;;;;;;;;;;;;;22.18;24.00;96568.91;10530559;28;1969;-57
2022/03/26 05:11:15;;;;;;;;;;;;;;;22.18;24.08;96561.78;10528431;28;1930;-58
2022/03/26 05:16:15;;;;;;;;;;;;;;;22.17;24.23;96570.75;10525429;28;1969;-56
2022/03/26 05:21:15;;;;;;;;;;;;;;;22.19;24.08;96573.13;10527017;28;1796;-60
2022/03/26 05:26:16;;;;;;;;;;;;;;;22.21;24.13;96574.47;10508853;28;1890;-58
2022/03/26 05:31:17;;;;;;;;;;;;;;;22.20;24.20;96575.50;10513600;28;1998;-59
2022/03/26 05:36:18;;;;;;;;;;;;;;;22.20;24.13;96580.78;10508287;28;2464;-59
2022/03/26 05:41:18;;;;;;;;;;;;;;;22.19;23.99;96579.22;10511100;28;1867;-60
2022/03/26 05:46:18;;;;;;;;;;;;;;;22.20;23.99;96593.19;10510175;28;1852;-58
2022/03/26 05:51:18;;;;;;;;;;;;;;;22.20;23.83;96586.06;10508672;28;1993;-58
2022/03/26 05:56:19;;;;;;;;;;;;;;;22.19;24.01;96595.06;10507737;28;1968;-56
2022/03/26 06:01:21;;;;;;;;;;;;;;;22.20;23.80;96604.56;10506276;28;1902;-58
2022/03/26 06:06:22;;;;;;;;;;;;;;;22.21;23.87;96608.78;10526012;28;1994;-58
2022/03/26 06:11:23;;;;;;;;;;;;;;;22.21;24.03;96618.56;10528201;28;1915;-59
2022/03/26 06:16:24;;;;;;;;;;;;;;;22.22;23.82;96623.56;10506086;28;1947;-58
2022/03/26 06:21:24;;;;;;;;;;;;;;;22.23;23.88;96625.16;10506255;28;1918;-57
2022/03/26 06:26:26;;;;;;;;;;;;;;;22.21;23.92;96629.91;10510056;28;1974;-58
2022/03/26 06:31:26;;;;;;;;;;;;;;;22.20;23.83;96630.97;10502151;28;1983;-58
2022/03/26 06:36:27;;;;;;;;;;;;;;;22.22;23.87;96631.50;10489262;28;2041;-58
2022/03/26 06:41:27;;;;;;;;;;;;;;;22.24;23.68;96636.50;10525929;28;1906;-57
2022/03/26 06:46:27;;;;;;;;;;;;;;;22.22;24.09;96634.13;10507475;28;1962;-58
2022/03/26 06:51:28;;;;;;;;;;;;;;;22.23;23.91;96641.03;10496575;28;1964;-56
2022/03/26 06:56:29;;;;;;;;;;;;;;;22.25;24.04;96648.66;10507781;28;1834;-58
2022/03/26 07:01:29;;;;;;;;;;;;;;;22.26;23.80;96648.41;10528263;28;2018;-58
2022/03/26 07:06:29;;;;;;;;;;;;;;;22.23;23.85;96650.78;10492685;28;2115;-60
2022/03/26 07:11:29;;;;;;;;;;;;;;;22.23;23.84;96654.22;10508114;28;1924;-59
2022/03/26 07:16:30;;;;;;;;;;;;;;;22.21;23.73;96656.34;10522094;28;1951;-58
2022/03/26 07:21:32;;;;;;;;;;;;;;;22.21;23.92;96661.63;10520701;28;1997;-60
2022/03/26 07:26:32;;;;;;;;;;;;;;;22.24;24.07;96662.91;10521179;28;1930;-58
2022/03/26 07:31:32;;;;;;;;;;;;;;;22.22;23.81;96667.66;10508284;28;2006;-58
2022/03/26 07:36:33;;;;;;;;;;;;;;;22.22;24.09;96660.53;10517849;28;2024;-58
2022/03/26 07:41:34;;;;;;;;;;;;;;;22.25;23.98;96672.44;10508820;28;2040;-59
2022/03/26 07:46:34;;;;;;;;;;;;;;;22.21;23.96;96672.19;10507631;28;1964;-58
2022/03/26 07:51:35;;;;;;;;;;;;;;;22.22;24.00;96663.19;10477301;28;1926;-58
2022/03/26 07:56:35;;;;;;;;;;;;;;;22.23;23.88;96662.16;10520144;28;1911;-57
2022/03/26 08:01:36;;;;;;;;;;;;;;;22.22;24.09;96671.09;10504729;28;1853;-59
2022/03/26 08:06:36;;;;;;;;;;;;;;;22.22;23.88;96670.31;10501180;28;1829;-59
2022/03/26 08:11:37;;;;;;;;;;;;;;;22.23;24.05;96670.06;10501479;28;1965;-59
2022/03/26 08:16:37;;;;;;;;;;;;;;;22.24;24.15;96673.47;10502291;28;1781;-59
2022/03/26 08:21:38;;;;;;;;;;;;;;;22.26;23.81;96689.84;10512281;28;1901;-59
2022/03/26 08:26:39;;;;;;;;;;;;;;;22.24;24.06;96691.97;10509392;28;1888;-59
2022/03/26 08:31:40;;;;;;;;;;;;;;;22.25;23.97;96688.28;10507817;28;1959;-58
2022/03/26 08:36:40;;;;;;;;;;;;;;;22.26;24.25;96688.00;10528199;28;1666;-62
2022/03/26 08:41:40;;;;;;;;;;;;;;;22.29;24.25;96700.72;10510312;28;1774;-57
2022/03/26 08:46:41;;;;;;;;;;;;;;;22.28;24.40;96693.81;10528513;28;1784;-56
2022/03/26 08:51:41;;;;;;;;;;;;;;;22.33;24.57;96696.50;10507568;28;1906;-59
2022/03/26 08:56:42;;;;;;;;;;;;;;;22.32;25.07;96699.38;10527493;28;1650;-59
2022/03/26 09:01:42;;;;;;;;;;;;;;;22.36;25.51;96703.88;10509426;28;1539;-58
2022/03/26 09:06:42;;;;;;;;;;;;;;;22.35;26.03;96701.50;10526493;28;1388;-57
2022/03/26 09:11:43;;;;;;;;;;;;;;;22.34;25.82;96700.72;10523653;28;1955;-58
2022/03/26 09:16:44;;;;;;;;;;;;;;;22.35;26.08;96697.03;10507915;28;1401;-56
2022/03/26 09:21:46;;;;;;;;;;;;;;;22.32;25.90;96694.91;10510042;28;1652;-57
2022/03/26 09:26:46;;;;;;;;;;;;;;;22.32;25.81;96694.91;10503647;28;1494;-59
2022/03/26 09:31:47;;;;;;;;;;;;;;;22.31;25.78;96690.69;10507717;28;1965;-59
2022/03/26 09:36:47;;;;;;;;;;;;;;;22.28;25.92;96688.53;10525271;28;1438;-58
2022/03/26 09:41:49;;;;;;;;;;;;;;;22.28;25.67;96685.91;10525135;28;1436;-58
2022/03/26 09:46:49;;;;;;;;;;;;;;;22.27;26.02;96692.25;10494667;28;1540;-59
2022/03/26 09:51:56;;;;;;;;;;;;;;;22.26;26.06;96690.66;10503073;28;1933;-57
2022/03/26 09:56:57;;;;;;;;;;;;;;;22.26;26.42;96688.00;10497295;28;1799;-60
2022/03/26 10:01:57;;;;;;;;;;;;;;;22.29;26.22;96689.34;10514501;28;1801;-59
2022/03/26 10:06:58;;;;;;;;;;;;;;;22.30;25.85;96686.44;10507373;28;1845;-58
2022/03/26 10:11:59;;;;;;;;;;;;;;;22.30;26.01;96680.34;10473280;28;1983;-60
2022/03/26 10:17:02;;;;;;;;;;;;;;;22.30;26.09;96680.34;10524942;28;1892;-59
2022/03/26 10:22:03;;;;;;;;;;;;;;;22.32;25.94;96672.97;10506930;28;1833;-58
2022/03/26 10:27:13;;;;;;;;;;;;;;;22.32;25.96;96675.59;10506780;28;1806;-56
2022/03/26 10:37:42;;;;;;;;;;;;;;;22.30;26.17;96664.50;10504380;28;1845;-58
2022/03/26 10:42:42;;;;;;;;;;;;;;;22.33;26.08;96664.78;10518911;28;2006;-57
2022/03/26 10:47:42;;;;;;;;;;;;;;;22.31;26.25;96645.78;10519405;28;1820;-54
2022/03/26 10:52:43;;;;;;;;;;;;;;;22.32;26.18;96655.28;10508091;28;1973;-59
2022/03/26 10:57:45;;;;;;;;;;;;;;;22.33;26.16;96654.22;10523613;28;1908;-56
2022/03/26 11:02:46;;;;;;;;;;;;;;;22.33;26.16;96648.16;10522900;28;1979;-59
2022/03/26 11:07:46;;;;;;;;;;;;;;;22.33;26.13;96648.94;10504279;28;1892;-59
2022/03/26 11:12:47;;;;;;;;;;;;;;;22.28;26.21;96635.72;10500227;28;1918;-55
2022/03/26 11:17:51;;;;;;;;;;;;;;;22.33;26.70;96645.50;10493942;28;1826;-57
2022/03/26 11:23:10;;;;;;;;;;;;;;;22.37;27.30;96642.09;10501292;28;1480;-59
2022/03/26 11:28:15;;;;;;;;;;;;;;;22.43;28.48;96633.09;10518666;28;1499;-56
2022/03/26 11:33:17;;;;;;;;;;;;;;;22.44;28.57;96626.75;10486295;28;1902;-55
2022/03/26 11:38:17;;;;;;;;;;;;;;;22.46;28.08;96622.00;10501624;28;1451;-56
2022/03/26 11:43:21;;;;;;;;;;;;;;;22.43;27.91;96621.72;10503278;28;1303;-56
2022/03/26 11:53:44;;;;;;;;;;;;;;;22.33;26.76;96601.41;10503964;28;1922;-56
2022/03/26 11:58:45;;;;;;;;;;;;;;;22.32;26.53;96604.28;10515204;28;1616;-56
2022/03/26 12:03:48;;;;;;;;;;;;;;;22.33;25.98;96596.13;10503911;28;1699;-57
2022/03/26 12:08:49;;;;;;;;;;;;;;;22.33;26.15;96588.19;10502140;28;1480;-58
2022/03/26 12:14:00;;;;;;;;;;;;;;;22.34;26.00;96581.84;10498567;28;1973;-57
2022/03/26 12:19:00;;;;;;;;;;;;;;;22.34;25.62;96576.56;10514168;28;1544;-58
2022/03/26 12:24:02;;;;;;;;;;;;;;;22.28;25.57;96574.19;10504717;28;2181;-54
2022/03/26 12:29:02;;;;;;;;;;;;;;;22.33;25.83;96576.81;10500446;28;1875;-55
2022/03/26 12:34:03;;;;;;;;;;;;;;;22.41;25.73;96574.44;10498372;28;2123;-60
2022/03/26 12:39:03;;;;;;;;;;;;;;;22.40;25.57;96564.94;10467611;28;1416;-56
2022/03/26 12:44:04;;;;;;;;;;;;;;;22.39;25.00;96552.00;10503223;28;1320;-57
2022/03/26 12:49:17;;;;;;;;;;;;;;;22.40;25.20;96553.59;10493853;28;2257;-58
2022/03/26 12:54:18;;;;;;;;;;;;;;;22.47;25.01;96548.81;10494577;28;1920;-57
2022/03/26 12:59:18;;;;;;;;;;;;;;;22.45;25.01;96551.72;10518276;28;1532;-57
2022/03/26 13:04:19;;;;;;;;;;;;;;;22.51;24.33;96553.31;10505347;28;1459;-53
2022/03/26 13:09:19;;;;;;;;;;;;;;;22.50;24.42;96549.06;10525568;28;1456;-57
2022/03/26 13:14:20;;;;;;;;;;;;;;;22.48;24.69;96543.25;10508003;28;1921;-57
2022/03/26 13:19:20;;;;;;;;;;;;;;;22.47;25.15;96539.03;10526945;28;1463;-57
2022/03/26 13:24:21;;;;;;;;;;;;;;;22.50;25.10;96545.66;10525522;28;1444;-56
2022/03/26 13:29:22;;;;;;;;;;;;;;;22.51;25.53;96534.00;10520767;28;1427;-55
2022/03/26 13:34:23;;;;;;;;;;;;;;;22.50;25.17;96530.56;10528401;28;1898;-59
2022/03/26 13:39:24;;;;;;;;;;;;;;;22.47;25.36;96530.31;10524051;28;1526;-56
2022/03/26 13:44:26;;;;;;;;;;;;;;;22.47;24.95;96531.13;10524271;28;1443;-59
2022/03/26 13:49:27;;;;;;;;;;;;;;;22.44;25.23;96533.50;10523908;28;1397;-54
2022/03/26 13:54:29;;;;;;;;;;;;;;;22.44;24.82;96529.00;10506339;28;2397;-55
2022/03/26 13:59:29;;;;;;;;;;;;;;;22.40;24.79;96527.19;10522177;28;1435;-57
2022/03/26 14:04:30;;;;;;;;;;;;;;;22.35;24.88;96520.03;10506180;28;1413;-57
2022/03/26 14:09:30;;;;;;;;;;;;;;;22.37;24.62;96523.22;10504744;28;1790;-56
2022/03/26 14:14:30;;;;;;;;;;;;;;;22.36;24.70;96524.25;10526594;28;1976;-54
2022/03/26 14:19:31;;;;;;;;;;;;;;;22.32;24.71;96511.84;10524628;28;1622;-55
2022/03/26 14:24:31;;;;;;;;;;;;;;;22.25;24.58;96525.34;10520638;28;1462;-57
2022/03/26 14:29:32;;;;;;;;;;;;;;;22.23;24.91;96511.59;10518514;28;1943;-58
2022/03/26 14:34:32;;;;;;;;;;;;;;;22.21;25.33;96508.44;10515763;28;1964;-57
2022/03/26 14:39:32;;;;;;;;;;;;;;;22.24;26.20;96501.81;10518071;28;1571;-56
2022/03/26 14:44:33;;;;;;;;;;;;;;;22.24;26.27;96505.25;10518214;28;1534;-55
2022/03/26 14:49:34;;;;;;;;;;;;;;;22.23;26.49;96506.31;10501247;28;1433;-57
2022/03/26 14:54:35;;;;;;;;;;;;;;;22.29;26.58;96499.97;10490320;28;1918;-58
2022/03/26 14:59:36;;;;;;;;;;;;;;;22.27;26.47;96502.09;10493578;28;1872;-57
2022/03/26 15:04:36;;;;;;;;;;;;;;;22.27;26.83;96503.94;10499805;28;1455;-56
2022/03/26 15:09:36;;;;;;;;;;;;;;;22.28;26.71;96503.66;10521606;28;1404;-60
2022/03/26 15:14:37;;;;;;;;;;;;;;;22.29;26.77;96504.47;10496566;28;1910;-58
2022/03/26 15:19:37;;;;;;;;;;;;;;;22.29;26.63;96499.19;10500541;28;1803;-58
2022/03/26 15:24:37;;;;;;;;;;;;;;;22.30;26.72;96498.91;10500510;28;2156;-59
2022/03/26 15:29:40;;;;;;;;;;;;;;;22.30;26.83;96501.53;10497615;28;1425;-59
2022/03/26 15:34:41;;;;;;;;;;;;;;;22.32;27.02;96498.63;10495888;28;1968;-58
2022/03/26 15:39:41;;;;;;;;;;;;;;;22.28;27.06;96508.94;10512595;28;1328;-59
2022/03/26 15:44:42;;;;;;;;;;;;;;;22.29;27.01;96507.09;10519265;28;1762;-56
2022/03/26 15:49:42;;;;;;;;;;;;;;;22.30;26.98;96500.75;10519106;28;1774;-55
2022/03/26 15:54:42;;;;;;;;;;;;;;;22.28;26.80;96508.16;10514050;28;1972;-58
2022/03/26 15:59:43;;;;;;;;;;;;;;;22.26;26.88;96497.06;10514612;28;2021;-58
2022/03/26 16:04:43;;;;;;;;;;;;;;;22.24;26.90;96502.63;10511548;28;1821;-56
2022/03/26 16:09:43;;;;;;;;;;;;;;;22.21;27.10;96505.81;10510084;28;1759;-57
2022/03/26 16:14:44;;;;;;;;;;;;;;;22.22;26.89;96502.09;10521469;28;1898;-56
2022/03/26 16:19:44;;;;;;;;;;;;;;;22.19;26.95;96500.00;10502089;28;1818;-58
2022/03/26 16:24:46;;;;;;;;;;;;;;;22.18;26.98;96508.97;10506501;28;2007;-55
2022/03/26 16:29:46;;;;;;;;;;;;;;;22.17;26.95;96519.78;10506839;28;1928;-57
2022/03/26 16:34:46;;;;;;;;;;;;;;;22.17;27.07;96528.50;10509192;28;2052;-57
2022/03/26 16:39:47;;;;;;;;;;;;;;;22.15;26.86;96525.34;10511974;28;1934;-54
2022/03/26 16:44:48;;;;;;;;;;;;;;;22.15;27.01;96525.34;10509462;28;1980;-55
2022/03/26 16:49:48;;;;;;;;;;;;;;;22.17;27.05;96530.34;10527852;28;1849;-57
2022/03/26 16:54:49;;;;;;;;;;;;;;;22.18;26.96;96531.94;10515101;28;1909;-57
2022/03/26 16:59:49;;;;;;;;;;;;;;;22.16;27.13;96531.41;10515975;28;2044;-58
2022/03/26 17:04:49;;;;;;;;;;;;;;;22.20;26.66;96527.97;10507178;28;1809;-59
2022/03/26 17:09:49;;;;;;;;;;;;;;;22.18;26.81;96535.38;10506342;28;1885;-57
2022/03/26 17:14:50;;;;;;;;;;;;;;;22.20;26.67;96538.53;10506038;28;1961;-59
2022/03/26 17:19:50;;;;;;;;;;;;;;;22.19;26.70;96536.16;10494516;28;1868;-57
2022/03/26 17:24:51;;;;;;;;;;;;;;;22.19;26.58;96542.25;10530384;28;1865;-60
2022/03/26 17:29:51;;;;;;;;;;;;;;;22.19;26.82;96550.16;10525650;28;1924;-58
2022/03/26 17:34:51;;;;;;;;;;;;;;;22.22;26.76;96551.47;10532089;28;2148;-59
2022/03/26 17:39:52;;;;;;;;;;;;;;;22.21;26.63;96555.19;10527787;28;1844;-59
2022/03/26 17:44:52;;;;;;;;;;;;;;;22.22;26.73;96554.09;10527876;28;2114;-59
2022/03/26 17:49:52;;;;;;;;;;;;;;;22.24;26.58;96559.91;10527249;28;1896;-59
2022/03/26 17:54:53;;;;;;;;;;;;;;;22.23;26.46;96556.50;10526121;28;1897;-59
2022/03/26 17:59:53;;;;;;;;;;;;;;;22.24;26.70;96565.19;10523003;28;1877;-58
2022/03/26 18:04:54;;;;;;;;;;;;;;;22.23;26.55;96564.44;10528287;28;2110;-58
2022/03/26 18:09:54;;;;;;;;;;;;;;;22.22;26.54;96568.09;10508834;28;1920;-59
2022/03/26 18:14:55;;;;;;;;;;;;;;;22.27;26.74;96576.03;10512164;28;1914;-59
2022/03/26 18:19:55;;;;;;;;;;;;;;;22.25;26.76;96578.16;10505438;28;1934;-59
2022/03/26 18:24:55;;;;;;;;;;;;;;;22.28;26.64;96585.53;10516240;28;1892;-57
2022/03/26 18:29:56;;;;;;;;;;;;;;;22.36;26.55;96594.81;10508778;28;1970;-58
2022/03/26 18:34:56;;;;;;;;;;;;;;;22.42;26.39;96605.09;10506859;28;1983;-53
2022/03/26 18:39:57;;;;;;;;;;;;;;;22.51;26.23;96608.00;10513728;28;1912;-51
2022/03/26 18:44:57;;;;;;;;;;;;;;;22.64;25.82;96603.00;10506893;28;1889;-60
2022/03/26 18:49:58;;;;;;;;;;;;;;;22.75;25.83;96611.69;10523059;28;1855;-59
2022/03/26 18:54:58;;;;;;;;;;;;;;;22.84;25.85;96620.69;10509092;28;1959;-59
2022/03/26 18:59:59;;;;;;;;;;;;;;;22.95;25.68;96618.81;10523273;28;2174;-58
2022/03/26 19:04:59;;;;;;;;;;;;;;;22.98;25.31;96620.94;10506499;28;1889;-58
2022/03/26 19:10:00;;;;;;;;;;;;;;;23.09;25.37;96619.84;10491854;28;1797;-58
2022/03/26 19:15:01;;;;;;;;;;;;;;;23.20;25.16;96621.41;10504698;28;1979;-60
2022/03/26 19:20:03;;;;;;;;;;;;;;;23.26;25.12;96630.91;10520730;28;2085;-61
2022/03/26 19:25:03;;;;;;;;;;;;;;;23.30;25.17;96640.69;10519642;28;1900;-61
2022/03/26 19:30:05;;;;;;;;;;;;;;;23.28;25.42;96647.31;10520162;28;1872;-59
2022/03/26 19:35:05;;;;;;;;;;;;;;;23.37;25.41;96651.00;10503135;28;1910;-56
2022/03/26 19:40:06;;;;;;;;;;;;;;;23.37;25.53;96651.78;10530256;28;1819;-53
2022/03/26 19:45:07;;;;;;;;;;;;;;;23.42;25.65;96653.63;10504052;28;1796;-55
2022/03/26 19:50:07;;;;;;;;;;;;;;;23.40;25.46;96645.97;10499614;28;1885;-52
2022/03/26 19:55:08;;;;;;;;;;;;;;;23.44;25.66;96654.94;10502759;28;1969;-55
2022/03/26 20:00:10;;;;;;;;;;;;;;;23.43;25.17;96657.88;10505622;28;1778;-57
2022/03/26 20:05:10;;;;;;;;;;;;;;;23.40;24.72;96658.41;10526618;28;1871;-53
2022/03/26 20:10:12;;;;;;;;;;;;;;;23.45;25.09;96661.03;10522515;28;1866;-52
2022/03/26 20:15:12;;;;;;;;;;;;;;;23.42;25.03;96658.91;10518171;28;1917;-54
2022/03/26 20:20:12;;;;;;;;;;;;;;;23.43;25.22;96669.22;10522490;28;1844;-57
2022/03/26 20:25:13;;;;;;;;;;;;;;;23.39;26.06;96664.75;10503122;28;1814;-55
2022/03/26 20:30:13;;;;;;;;;;;;;;;23.44;26.25;96672.69;10522099;28;1936;-52
2022/03/26 20:35:13;;;;;;;;;;;;;;;23.49;25.92;96682.47;10499418;28;1907;-53
2022/03/26 20:40:14;;;;;;;;;;;;;;;23.50;25.84;96681.38;10510724;28;1717;-53
2022/03/26 20:45:14;;;;;;;;;;;;;;;23.47;25.68;96685.38;10496190;28;1759;-52
2022/03/26 20:50:16;;;;;;;;;;;;;;;23.44;25.69;96691.19;10519441;28;1877;-56
2022/03/26 20:55:16;;;;;;;;;;;;;;;23.44;25.73;96691.19;10505297;28;2178;-55
2022/03/26 21:00:16;;;;;;;;;;;;;;;23.42;26.17;96696.78;10502811;28;1821;-56
2022/03/26 21:05:17;;;;;;;;;;;;;;;23.43;25.87;96702.84;10520687;28;1839;-54
2022/03/26 21:10:18;;;;;;;;;;;;;;;23.37;30.39;96703.91;10503158;28;1842;-53
2022/03/26 21:15:19;;;;;;;;;;;;;;;23.26;30.50;96700.47;10504194;28;2219;-56
2022/03/26 21:20:20;;;;;;;;;;;;;;;23.18;32.44;96705.53;10503652;28;1925;-55
2022/03/26 21:30:40;;;;;;;;;;;;;;;23.03;32.81;96716.09;10529080;28;1790;-53
2022/03/26 21:35:41;;;;;;;;;;;;;;;23.06;30.33;96712.94;10526724;28;1975;-54
2022/03/26 21:40:43;;;;;;;;;;;;;;;22.99;30.00;96713.22;10529571;28;1861;-54
2022/03/26 21:45:44;;;;;;;;;;;;;;;22.98;30.89;96710.84;10518639;28;1785;-54
2022/03/26 21:50:44;;;;;;;;;;;;;;;23.00;30.26;96721.94;10521729;28;2040;-55
2022/03/26 21:55:45;;;;;;;;;;;;;;;22.96;30.61;96718.22;10505380;28;1973;-54
2022/03/26 22:00:46;;;;;;;;;;;;;;;22.75;33.79;96719.28;10502372;28;1815;-54
2022/03/26 22:05:47;;;;;;;;;;;;;;;22.72;31.18;96720.59;10502586;28;2004;-53
2022/03/26 22:10:47;;;;;;;;;;;;;;;22.56;29.49;96721.63;10503755;28;1931;-52
2022/03/26 22:15:48;;;;;;;;;;;;;;;22.38;29.50;96719.50;10506909;28;1962;-55
2022/03/26 22:20:48;;;;;;;;;;;;;;;22.24;28.95;96721.03;10495161;28;1822;-53
2022/03/26 22:25:49;;;;;;;;;;;;;;;22.10;29.12;96718.09;10499904;28;1998;-56
2022/03/26 22:30:50;;;;;;;;;;;;;;;22.02;28.92;96718.59;10503096;28;1959;-54
2022/03/26 22:35:50;;;;;;;;;;;;;;;21.95;28.63;96720.66;10516002;28;1906;-51
2022/03/26 22:40:51;;;;;;;;;;;;;;;22.02;31.21;96717.78;10525397;28;1865;-59
2022/03/26 22:45:53;;;;;;;;;;;;;;;21.95;36.05;96715.38;10526084;28;2036;-52
2022/03/26 22:50:53;;;;;;;;;;;;;;;21.75;37.28;96713.44;10515369;28;2021;-54
2022/03/26 22:55:54;;;;;;;;;;;;;;;21.71;38.69;96708.94;10505118;28;1914;-62
2022/03/26 23:01:16;;;;;;;;;;;;;;;21.69;39.30;96708.41;10519946;28;1824;-51
2022/03/26 23:06:16;;;;;;;;;;;;;;;21.67;40.22;96708.66;10500341;28;1773;-51
2022/03/26 23:11:17;;;;;;;;;;;;;;;21.68;40.35;96712.88;10506511;28;1707;-53
2022/03/26 23:16:17;;;;;;;;;;;;;;;21.69;40.88;96706.56;10502928;28;1918;-53
2022/03/26 23:21:18;;;;;;;;;;;;;;;21.69;40.70;96701.28;10522786;28;1779;-55
2022/03/26 23:26:18;;;;;;;;;;;;;;;21.70;40.51;96707.38;10504748;28;1935;-54
2022/03/26 23:31:18;;;;;;;;;;;;;;;21.69;41.41;96701.28;10502147;28;1810;-56
2022/03/26 23:36:19;;;;;;;;;;;;;;;21.70;41.37;96704.72;10505639;28;1989;-53
2022/03/26 23:41:20;;;;;;;;;;;;;;;21.71;40.95;96706.28;10508670;28;1870;-54
2022/03/26 23:46:21;;;;;;;;;;;;;;;21.70;41.09;96707.38;10523056;28;1841;-54
2022/03/26 23:51:22;;;;;;;;;;;;;;;21.69;41.04;96711.03;10523104;28;1802;-55
2022/03/26 23:56:23;;;;;;;;;;;;;;;21.66;40.44;96700.97;10517179;28;1987;-54
